sensor_id;sensor_type;location;lat;lon;timestamp;temperature;humidity
43997;DHT22;34318;45.818;15.964;2022-07-23T00:00:37;25.60;68.00
43997;DHT22;34318;45.818;15.964;2022-07-23T00:03:06;25.60;68.20
43997;DHT22;34318;45.818;15.964;2022-07-23T00:05:34;25.60;68.00
43997;DHT22;34318;45.818;15.964;2022-07-23T00:08:04;25.60;68.50
43997;DHT22;34318;45.818;15.964;2022-07-23T00:10:34;25.60;68.60
43997;DHT22;34318;45.818;15.964;2022-07-23T00:13:01;25.60;68.60
43997;DHT22;34318;45.818;15.964;2022-07-23T00:15:29;25.60;68.60
43997;DHT22;34318;45.818;15.964;2022-07-23T00:17:56;25.60;68.60
43997;DHT22;34318;45.818;15.964;2022-07-23T00:20:23;25.60;68.50
43997;DHT22;34318;45.818;15.964;2022-07-23T00:22:54;25.50;69.00
43997;DHT22;34318;45.818;15.964;2022-07-23T00:25:23;25.50;69.20
43997;DHT22;34318;45.818;15.964;2022-07-23T00:27:59;25.50;69.40
43997;DHT22;34318;45.818;15.964;2022-07-23T00:30:30;25.40;69.40
43997;DHT22;34318;45.818;15.964;2022-07-23T00:33:02;25.50;69.50
43997;DHT22;34318;45.818;15.964;2022-07-23T00:35:32;25.40;70.10
43997;DHT22;34318;45.818;15.964;2022-07-23T00:38:03;25.40;69.90
43997;DHT22;34318;45.818;15.964;2022-07-23T00:40:31;25.40;70.00
43997;DHT22;34318;45.818;15.964;2022-07-23T00:42:58;25.60;69.40
43997;DHT22;34318;45.818;15.964;2022-07-23T00:45:26;25.60;69.90
43997;DHT22;34318;45.818;15.964;2022-07-23T00:47:54;25.60;69.30
43997;DHT22;34318;45.818;15.964;2022-07-23T00:50:21;25.70;68.70
43997;DHT22;34318;45.818;15.964;2022-07-23T00:52:48;25.80;68.40
43997;DHT22;34318;45.818;15.964;2022-07-23T00:55:15;25.80;68.40
43997;DHT22;34318;45.818;15.964;2022-07-23T00:57:42;25.70;68.90
43997;DHT22;34318;45.818;15.964;2022-07-23T01:00:12;25.60;69.20
43997;DHT22;34318;45.818;15.964;2022-07-23T01:02:40;25.70;69.20
43997;DHT22;34318;45.818;15.964;2022-07-23T01:05:08;25.70;69.00
43997;DHT22;34318;45.818;15.964;2022-07-23T01:07:36;25.70;69.30
43997;DHT22;34318;45.818;15.964;2022-07-23T01:10:04;25.60;69.60
43997;DHT22;34318;45.818;15.964;2022-07-23T01:12:53;25.60;69.30
43997;DHT22;34318;45.818;15.964;2022-07-23T01:15:21;25.50;69.80
43997;DHT22;34318;45.818;15.964;2022-07-23T01:17:48;25.60;69.40
43997;DHT22;34318;45.818;15.964;2022-07-23T01:20:15;25.60;69.80
43997;DHT22;34318;45.818;15.964;2022-07-23T01:22:42;25.40;70.10
43997;DHT22;34318;45.818;15.964;2022-07-23T01:25:09;25.50;70.20
43997;DHT22;34318;45.818;15.964;2022-07-23T01:27:36;25.50;70.00
43997;DHT22;34318;45.818;15.964;2022-07-23T01:30:04;25.40;70.10
43997;DHT22;34318;45.818;15.964;2022-07-23T01:32:31;25.50;70.30
43997;DHT22;34318;45.818;15.964;2022-07-23T01:34:58;25.40;70.20
43997;DHT22;34318;45.818;15.964;2022-07-23T01:37:25;25.60;69.90
43997;DHT22;34318;45.818;15.964;2022-07-23T01:39:51;25.50;70.20
43997;DHT22;34318;45.818;15.964;2022-07-23T01:42:18;25.50;70.20
43997;DHT22;34318;45.818;15.964;2022-07-23T01:44:46;25.60;70.00
43997;DHT22;34318;45.818;15.964;2022-07-23T01:47:13;25.50;70.20
43997;DHT22;34318;45.818;15.964;2022-07-23T01:49:40;25.40;70.60
43997;DHT22;34318;45.818;15.964;2022-07-23T01:52:06;25.20;71.00
43997;DHT22;34318;45.818;15.964;2022-07-23T01:54:38;25.20;71.10
43997;DHT22;34318;45.818;15.964;2022-07-23T01:57:06;25.20;71.20
43997;DHT22;34318;45.818;15.964;2022-07-23T01:59:33;25.30;71.00
43997;DHT22;34318;45.818;15.964;2022-07-23T02:02:00;25.40;71.10
43997;DHT22;34318;45.818;15.964;2022-07-23T02:04:27;25.40;71.10
43997;DHT22;34318;45.818;15.964;2022-07-23T02:06:55;25.20;71.60
43997;DHT22;34318;45.818;15.964;2022-07-23T02:09:24;25.20;72.30
43997;DHT22;34318;45.818;15.964;2022-07-23T02:11:51;25.20;72.10
43997;DHT22;34318;45.818;15.964;2022-07-23T02:14:18;25.20;71.50
43997;DHT22;34318;45.818;15.964;2022-07-23T02:16:45;25.20;71.40
43997;DHT22;34318;45.818;15.964;2022-07-23T02:19:12;25.00;72.20
43997;DHT22;34318;45.818;15.964;2022-07-23T02:21:39;25.00;72.10
43997;DHT22;34318;45.818;15.964;2022-07-23T02:24:06;25.00;72.20
43997;DHT22;34318;45.818;15.964;2022-07-23T02:26:33;25.00;72.40
43997;DHT22;34318;45.818;15.964;2022-07-23T02:29:02;25.00;72.40
43997;DHT22;34318;45.818;15.964;2022-07-23T02:31:30;25.00;72.50
43997;DHT22;34318;45.818;15.964;2022-07-23T02:33:57;25.00;72.80
43997;DHT22;34318;45.818;15.964;2022-07-23T02:36:24;25.10;72.30
43997;DHT22;34318;45.818;15.964;2022-07-23T02:38:51;25.00;72.60
43997;DHT22;34318;45.818;15.964;2022-07-23T02:41:18;25.00;72.80
43997;DHT22;34318;45.818;15.964;2022-07-23T02:43:45;25.00;73.10
43997;DHT22;34318;45.818;15.964;2022-07-23T02:46:12;24.90;73.30
43997;DHT22;34318;45.818;15.964;2022-07-23T02:48:38;25.00;72.80
43997;DHT22;34318;45.818;15.964;2022-07-23T02:51:05;25.00;72.80
43997;DHT22;34318;45.818;15.964;2022-07-23T02:53:40;24.80;73.70
43997;DHT22;34318;45.818;15.964;2022-07-23T02:56:07;24.90;73.30
43997;DHT22;34318;45.818;15.964;2022-07-23T02:58:34;24.90;73.40
43997;DHT22;34318;45.818;15.964;2022-07-23T03:01:01;24.80;74.00
43997;DHT22;34318;45.818;15.964;2022-07-23T03:03:28;24.80;73.90
43997;DHT22;34318;45.818;15.964;2022-07-23T03:05:56;24.90;73.50
43997;DHT22;34318;45.818;15.964;2022-07-23T03:08:22;24.80;73.50
43997;DHT22;34318;45.818;15.964;2022-07-23T03:10:49;24.70;73.80
43997;DHT22;34318;45.818;15.964;2022-07-23T03:13:16;25.10;72.40
43997;DHT22;34318;45.818;15.964;2022-07-23T03:15:43;25.40;70.80
43997;DHT22;34318;45.818;15.964;2022-07-23T03:18:10;25.60;69.70
43997;DHT22;34318;45.818;15.964;2022-07-23T03:20:37;25.50;70.00
43997;DHT22;34318;45.818;15.964;2022-07-23T03:23:04;25.50;69.70
43997;DHT22;34318;45.818;15.964;2022-07-23T03:25:31;25.60;69.40
43997;DHT22;34318;45.818;15.964;2022-07-23T03:27:57;25.60;69.40
43997;DHT22;34318;45.818;15.964;2022-07-23T03:30:24;25.50;69.60
43997;DHT22;34318;45.818;15.964;2022-07-23T03:32:51;25.50;69.80
43997;DHT22;34318;45.818;15.964;2022-07-23T03:35:18;25.50;69.80
43997;DHT22;34318;45.818;15.964;2022-07-23T03:37:45;25.60;69.60
43997;DHT22;34318;45.818;15.964;2022-07-23T03:40:12;25.60;69.80
43997;DHT22;34318;45.818;15.964;2022-07-23T03:42:40;25.60;69.80
43997;DHT22;34318;45.818;15.964;2022-07-23T03:45:09;25.60;69.60
43997;DHT22;34318;45.818;15.964;2022-07-23T03:47:36;25.60;69.40
43997;DHT22;34318;45.818;15.964;2022-07-23T03:50:03;25.50;69.70
43997;DHT22;34318;45.818;15.964;2022-07-23T03:52:31;25.60;70.00
43997;DHT22;34318;45.818;15.964;2022-07-23T03:54:58;25.50;70.00
43997;DHT22;34318;45.818;15.964;2022-07-23T03:57:26;25.50;69.90
43997;DHT22;34318;45.818;15.964;2022-07-23T03:59:53;25.60;69.70
43997;DHT22;34318;45.818;15.964;2022-07-23T04:02:19;25.60;69.40
43997;DHT22;34318;45.818;15.964;2022-07-23T04:04:46;25.60;69.40
43997;DHT22;34318;45.818;15.964;2022-07-23T04:07:14;25.60;69.60
43997;DHT22;34318;45.818;15.964;2022-07-23T04:09:40;25.50;70.10
43997;DHT22;34318;45.818;15.964;2022-07-23T04:12:12;25.50;70.00
43997;DHT22;34318;45.818;15.964;2022-07-23T04:14:39;25.40;71.00
43997;DHT22;34318;45.818;15.964;2022-07-23T04:17:06;25.50;69.90
43997;DHT22;34318;45.818;15.964;2022-07-23T04:19:33;25.60;69.80
43997;DHT22;34318;45.818;15.964;2022-07-23T04:21:59;25.40;70.40
43997;DHT22;34318;45.818;15.964;2022-07-23T04:24:26;25.40;70.60
43997;DHT22;34318;45.818;15.964;2022-07-23T04:26:53;25.60;70.00
43997;DHT22;34318;45.818;15.964;2022-07-23T04:29:20;25.60;70.30
43997;DHT22;34318;45.818;15.964;2022-07-23T04:31:47;25.50;70.60
43997;DHT22;34318;45.818;15.964;2022-07-23T04:34:14;25.50;70.70
43997;DHT22;34318;45.818;15.964;2022-07-23T04:36:41;25.50;70.70
43997;DHT22;34318;45.818;15.964;2022-07-23T04:39:08;25.50;70.90
43997;DHT22;34318;45.818;15.964;2022-07-23T04:41:35;25.50;70.90
43997;DHT22;34318;45.818;15.964;2022-07-23T04:44:03;25.60;70.90
43997;DHT22;34318;45.818;15.964;2022-07-23T04:46:29;25.50;70.70
43997;DHT22;34318;45.818;15.964;2022-07-23T04:48:57;25.60;70.90
43997;DHT22;34318;45.818;15.964;2022-07-23T04:51:25;25.60;70.60
43997;DHT22;34318;45.818;15.964;2022-07-23T04:53:52;25.70;70.50
43997;DHT22;34318;45.818;15.964;2022-07-23T04:56:18;25.50;71.20
43997;DHT22;34318;45.818;15.964;2022-07-23T04:58:45;25.50;71.20
43997;DHT22;34318;45.818;15.964;2022-07-23T05:01:12;25.50;71.20
43997;DHT22;34318;45.818;15.964;2022-07-23T05:03:39;25.60;71.30
43997;DHT22;34318;45.818;15.964;2022-07-23T05:06:06;25.60;71.30
43997;DHT22;34318;45.818;15.964;2022-07-23T05:08:33;25.60;71.50
43997;DHT22;34318;45.818;15.964;2022-07-23T05:11:00;25.70;71.50
43997;DHT22;34318;45.818;15.964;2022-07-23T05:13:27;25.70;71.50
43997;DHT22;34318;45.818;15.964;2022-07-23T05:15:54;25.60;72.00
43997;DHT22;34318;45.818;15.964;2022-07-23T05:18:24;25.60;72.00
43997;DHT22;34318;45.818;15.964;2022-07-23T05:20:50;25.70;72.20
43997;DHT22;34318;45.818;15.964;2022-07-23T05:23:17;25.40;74.00
43997;DHT22;34318;45.818;15.964;2022-07-23T05:25:44;25.30;75.00
43997;DHT22;34318;45.818;15.964;2022-07-23T05:28:11;25.40;74.70
43997;DHT22;34318;45.818;15.964;2022-07-23T05:30:38;25.50;74.10
43997;DHT22;34318;45.818;15.964;2022-07-23T05:33:05;25.50;75.10
43997;DHT22;34318;45.818;15.964;2022-07-23T05:35:33;25.40;75.70
43997;DHT22;34318;45.818;15.964;2022-07-23T05:38:00;25.60;75.40
43997;DHT22;34318;45.818;15.964;2022-07-23T05:40:27;25.60;75.20
43997;DHT22;34318;45.818;15.964;2022-07-23T05:42:54;25.60;75.10
43997;DHT22;34318;45.818;15.964;2022-07-23T05:45:21;25.70;74.70
43997;DHT22;34318;45.818;15.964;2022-07-23T05:47:50;25.80;74.60
43997;DHT22;34318;45.818;15.964;2022-07-23T05:50:19;25.50;75.40
43997;DHT22;34318;45.818;15.964;2022-07-23T05:52:46;25.40;76.40
43997;DHT22;34318;45.818;15.964;2022-07-23T05:55:14;25.70;74.70
43997;DHT22;34318;45.818;15.964;2022-07-23T05:57:41;26.00;73.10
43997;DHT22;34318;45.818;15.964;2022-07-23T06:00:09;26.20;71.60
43997;DHT22;34318;45.818;15.964;2022-07-23T06:02:38;26.40;71.30
43997;DHT22;34318;45.818;15.964;2022-07-23T06:05:06;26.50;71.50
43997;DHT22;34318;45.818;15.964;2022-07-23T06:07:37;26.50;71.40
43997;DHT22;34318;45.818;15.964;2022-07-23T06:10:05;26.60;71.20
43997;DHT22;34318;45.818;15.964;2022-07-23T06:12:32;26.70;70.80
43997;DHT22;34318;45.818;15.964;2022-07-23T06:14:59;26.70;70.50
43997;DHT22;34318;45.818;15.964;2022-07-23T06:17:26;26.80;70.40
43997;DHT22;34318;45.818;15.964;2022-07-23T06:19:54;26.90;70.10
43997;DHT22;34318;45.818;15.964;2022-07-23T06:22:22;26.90;69.80
43997;DHT22;34318;45.818;15.964;2022-07-23T06:24:49;27.00;70.00
43997;DHT22;34318;45.818;15.964;2022-07-23T06:27:18;27.10;69.60
43997;DHT22;34318;45.818;15.964;2022-07-23T06:29:51;27.10;69.40
43997;DHT22;34318;45.818;15.964;2022-07-23T06:32:18;27.10;69.60
43997;DHT22;34318;45.818;15.964;2022-07-23T06:34:45;27.20;69.60
43997;DHT22;34318;45.818;15.964;2022-07-23T06:37:14;27.20;69.30
43997;DHT22;34318;45.818;15.964;2022-07-23T06:39:43;27.20;69.00
43997;DHT22;34318;45.818;15.964;2022-07-23T06:42:12;27.30;69.20
43997;DHT22;34318;45.818;15.964;2022-07-23T06:44:39;27.30;69.40
43997;DHT22;34318;45.818;15.964;2022-07-23T06:47:06;27.30;68.90
43997;DHT22;34318;45.818;15.964;2022-07-23T06:49:33;27.40;68.90
43997;DHT22;34318;45.818;15.964;2022-07-23T06:52:03;27.40;68.70
43997;DHT22;34318;45.818;15.964;2022-07-23T06:54:30;27.40;68.50
43997;DHT22;34318;45.818;15.964;2022-07-23T06:56:57;27.50;68.50
43997;DHT22;34318;45.818;15.964;2022-07-23T06:59:24;27.50;68.40
43997;DHT22;34318;45.818;15.964;2022-07-23T07:01:50;27.60;68.20
43997;DHT22;34318;45.818;15.964;2022-07-23T07:04:18;27.60;68.00
43997;DHT22;34318;45.818;15.964;2022-07-23T07:06:45;27.60;68.00
43997;DHT22;34318;45.818;15.964;2022-07-23T07:09:12;27.60;67.80
43997;DHT22;34318;45.818;15.964;2022-07-23T07:11:39;27.60;67.90
43997;DHT22;34318;45.818;15.964;2022-07-23T07:14:05;27.60;67.90
43997;DHT22;34318;45.818;15.964;2022-07-23T07:16:33;27.70;67.80
43997;DHT22;34318;45.818;15.964;2022-07-23T07:19:00;27.70;67.70
43997;DHT22;34318;45.818;15.964;2022-07-23T07:21:27;27.80;67.80
43997;DHT22;34318;45.818;15.964;2022-07-23T07:23:54;27.80;67.50
43997;DHT22;34318;45.818;15.964;2022-07-23T07:26:21;27.80;67.40
43997;DHT22;34318;45.818;15.964;2022-07-23T07:28:48;27.90;67.40
43997;DHT22;34318;45.818;15.964;2022-07-23T07:31:15;27.90;67.20
43997;DHT22;34318;45.818;15.964;2022-07-23T07:33:42;28.00;67.20
43997;DHT22;34318;45.818;15.964;2022-07-23T07:36:10;28.00;67.10
43997;DHT22;34318;45.818;15.964;2022-07-23T07:38:44;28.00;67.00
43997;DHT22;34318;45.818;15.964;2022-07-23T07:41:11;28.10;67.00
43997;DHT22;34318;45.818;15.964;2022-07-23T07:43:39;28.10;66.80
43997;DHT22;34318;45.818;15.964;2022-07-23T07:46:06;28.20;66.70
43997;DHT22;34318;45.818;15.964;2022-07-23T07:48:37;28.20;66.60
43997;DHT22;34318;45.818;15.964;2022-07-23T07:51:05;28.20;66.60
43997;DHT22;34318;45.818;15.964;2022-07-23T07:53:32;28.20;66.50
43997;DHT22;34318;45.818;15.964;2022-07-23T07:55:58;28.30;66.40
43997;DHT22;34318;45.818;15.964;2022-07-23T07:58:25;28.30;66.10
43997;DHT22;34318;45.818;15.964;2022-07-23T08:00:52;28.30;66.10
43997;DHT22;34318;45.818;15.964;2022-07-23T08:03:19;28.40;66.00
43997;DHT22;34318;45.818;15.964;2022-07-23T08:05:46;28.40;66.00
43997;DHT22;34318;45.818;15.964;2022-07-23T08:08:13;28.40;65.90
43997;DHT22;34318;45.818;15.964;2022-07-23T08:10:43;28.40;65.80
43997;DHT22;34318;45.818;15.964;2022-07-23T08:13:13;28.50;65.80
43997;DHT22;34318;45.818;15.964;2022-07-23T08:15:43;28.50;65.70
43997;DHT22;34318;45.818;15.964;2022-07-23T08:18:12;28.50;65.60
43997;DHT22;34318;45.818;15.964;2022-07-23T08:20:39;28.60;65.60
43997;DHT22;34318;45.818;15.964;2022-07-23T08:23:07;28.60;65.50
43997;DHT22;34318;45.818;15.964;2022-07-23T08:25:36;28.60;65.50
43997;DHT22;34318;45.818;15.964;2022-07-23T08:28:05;28.60;65.50
43997;DHT22;34318;45.818;15.964;2022-07-23T08:30:33;28.60;65.30
43997;DHT22;34318;45.818;15.964;2022-07-23T08:33:05;28.70;65.30
43997;DHT22;34318;45.818;15.964;2022-07-23T08:35:36;28.70;65.30
43997;DHT22;34318;45.818;15.964;2022-07-23T08:38:05;28.70;65.30
43997;DHT22;34318;45.818;15.964;2022-07-23T08:40:34;28.70;65.30
43997;DHT22;34318;45.818;15.964;2022-07-23T08:43:18;28.70;65.20
43997;DHT22;34318;45.818;15.964;2022-07-23T08:45:47;28.80;65.10
43997;DHT22;34318;45.818;15.964;2022-07-23T08:48:19;28.80;65.10
43997;DHT22;34318;45.818;15.964;2022-07-23T08:50:50;28.80;65.20
43997;DHT22;34318;45.818;15.964;2022-07-23T08:53:18;28.80;65.20
43997;DHT22;34318;45.818;15.964;2022-07-23T08:55:47;28.80;65.10
43997;DHT22;34318;45.818;15.964;2022-07-23T08:58:15;28.80;65.10
43997;DHT22;34318;45.818;15.964;2022-07-23T09:00:43;28.80;65.20
43997;DHT22;34318;45.818;15.964;2022-07-23T09:03:17;28.80;65.10
43997;DHT22;34318;45.818;15.964;2022-07-23T09:05:45;28.80;65.20
43997;DHT22;34318;45.818;15.964;2022-07-23T09:08:23;28.90;65.20
43997;DHT22;34318;45.818;15.964;2022-07-23T09:11:01;28.90;65.20
43997;DHT22;34318;45.818;15.964;2022-07-23T09:13:45;28.90;65.50
43997;DHT22;34318;45.818;15.964;2022-07-23T09:16:15;28.90;65.70
43997;DHT22;34318;45.818;15.964;2022-07-23T09:18:46;28.90;66.00
43997;DHT22;34318;45.818;15.964;2022-07-23T09:21:32;28.90;66.20
43997;DHT22;34318;45.818;15.964;2022-07-23T09:24:00;28.90;66.90
43997;DHT22;34318;45.818;15.964;2022-07-23T09:26:36;28.90;67.10
43997;DHT22;34318;45.818;15.964;2022-07-23T09:34:12;29.00;68.60
43997;DHT22;34318;45.818;15.964;2022-07-23T09:36:40;29.00;69.20
43997;DHT22;34318;45.818;15.964;2022-07-23T09:39:07;29.00;70.40
43997;DHT22;34318;45.818;15.964;2022-07-23T09:41:43;29.00;70.40
43997;DHT22;34318;45.818;15.964;2022-07-23T09:44:17;29.10;70.70
43997;DHT22;34318;45.818;15.964;2022-07-23T09:46:52;29.10;70.80
43997;DHT22;34318;45.818;15.964;2022-07-23T09:49:23;29.10;71.10
43997;DHT22;34318;45.818;15.964;2022-07-23T09:51:59;29.00;71.50
43997;DHT22;34318;45.818;15.964;2022-07-23T09:54:35;29.10;71.10
43997;DHT22;34318;45.818;15.964;2022-07-23T09:57:11;29.00;70.70
43997;DHT22;34318;45.818;15.964;2022-07-23T09:59:43;29.00;70.10
43997;DHT22;34318;45.818;15.964;2022-07-23T10:02:12;29.00;69.70
43997;DHT22;34318;45.818;15.964;2022-07-23T10:04:39;29.00;69.60
43997;DHT22;34318;45.818;15.964;2022-07-23T10:07:08;29.10;69.50
43997;DHT22;34318;45.818;15.964;2022-07-23T10:09:39;29.00;69.40
43997;DHT22;34318;45.818;15.964;2022-07-23T10:12:13;29.00;69.30
43997;DHT22;34318;45.818;15.964;2022-07-23T10:14:50;29.10;69.40
43997;DHT22;34318;45.818;15.964;2022-07-23T10:17:17;29.00;69.40
43997;DHT22;34318;45.818;15.964;2022-07-23T10:19:45;29.00;69.30
43997;DHT22;34318;45.818;15.964;2022-07-23T10:22:22;29.00;69.20
43997;DHT22;34318;45.818;15.964;2022-07-23T10:24:57;29.00;69.20
43997;DHT22;34318;45.818;15.964;2022-07-23T10:30:04;29.00;69.10
43997;DHT22;34318;45.818;15.964;2022-07-23T10:38:16;29.00;69.00
43997;DHT22;34318;45.818;15.964;2022-07-23T10:43:27;29.00;69.00
43997;DHT22;34318;45.818;15.964;2022-07-23T10:46:23;29.10;69.10
43997;DHT22;34318;45.818;15.964;2022-07-23T10:49:20;29.00;69.00
43997;DHT22;34318;45.818;15.964;2022-07-23T10:54:45;29.00;69.30
43997;DHT22;34318;45.818;15.964;2022-07-23T10:57:14;29.00;69.20
43997;DHT22;34318;45.818;15.964;2022-07-23T11:02:42;29.00;69.40
43997;DHT22;34318;45.818;15.964;2022-07-23T11:05:12;29.00;69.30
43997;DHT22;34318;45.818;15.964;2022-07-23T11:24:00;29.10;69.70
43997;DHT22;34318;45.818;15.964;2022-07-23T11:26:52;29.10;69.80
43997;DHT22;34318;45.818;15.964;2022-07-23T11:31:57;29.00;69.70
43997;DHT22;34318;45.818;15.964;2022-07-23T11:34:45;29.00;69.80
43997;DHT22;34318;45.818;15.964;2022-07-23T11:39:57;29.00;69.80
43997;DHT22;34318;45.818;15.964;2022-07-23T11:42:25;29.10;69.90
43997;DHT22;34318;45.818;15.964;2022-07-23T11:44:57;29.10;69.80
43997;DHT22;34318;45.818;15.964;2022-07-23T11:47:28;29.10;70.00
43997;DHT22;34318;45.818;15.964;2022-07-23T11:50:02;29.10;69.80
43997;DHT22;34318;45.818;15.964;2022-07-23T11:52:31;29.10;69.70
43997;DHT22;34318;45.818;15.964;2022-07-23T11:55:04;29.10;69.50
43997;DHT22;34318;45.818;15.964;2022-07-23T11:57:38;29.10;69.70
43997;DHT22;34318;45.818;15.964;2022-07-23T12:00:13;29.00;69.50
43997;DHT22;34318;45.818;15.964;2022-07-23T12:02:43;29.00;69.60
43997;DHT22;34318;45.818;15.964;2022-07-23T12:05:16;29.00;69.50
43997;DHT22;34318;45.818;15.964;2022-07-23T12:07:44;29.10;69.60
43997;DHT22;34318;45.818;15.964;2022-07-23T12:10:19;29.10;69.50
43997;DHT22;34318;45.818;15.964;2022-07-23T12:12:58;29.10;69.50
43997;DHT22;34318;45.818;15.964;2022-07-23T12:15:31;29.10;69.60
43997;DHT22;34318;45.818;15.964;2022-07-23T12:18:02;29.10;69.30
43997;DHT22;34318;45.818;15.964;2022-07-23T12:20:34;29.10;69.20
43997;DHT22;34318;45.818;15.964;2022-07-23T12:23:05;29.10;69.40
43997;DHT22;34318;45.818;15.964;2022-07-23T12:25:35;29.10;69.20
43997;DHT22;34318;45.818;15.964;2022-07-23T12:28:06;29.20;69.40
43997;DHT22;34318;45.818;15.964;2022-07-23T12:30:48;29.10;69.40
43997;DHT22;34318;45.818;15.964;2022-07-23T12:33:25;29.10;69.60
43997;DHT22;34318;45.818;15.964;2022-07-23T12:35:55;29.10;69.70
43997;DHT22;34318;45.818;15.964;2022-07-23T12:38:25;29.10;69.70
43997;DHT22;34318;45.818;15.964;2022-07-23T12:40:54;29.10;69.80
43997;DHT22;34318;45.818;15.964;2022-07-23T12:43:28;29.10;69.80
43997;DHT22;34318;45.818;15.964;2022-07-23T12:46:06;29.10;70.00
43997;DHT22;34318;45.818;15.964;2022-07-23T12:48:51;29.10;70.60
43997;DHT22;34318;45.818;15.964;2022-07-23T12:53:57;29.10;70.00
43997;DHT22;34318;45.818;15.964;2022-07-23T12:56:40;29.10;69.90
43997;DHT22;34318;45.818;15.964;2022-07-23T12:59:15;29.10;70.00
43997;DHT22;34318;45.818;15.964;2022-07-23T13:01:53;29.20;69.80
43997;DHT22;34318;45.818;15.964;2022-07-23T13:04:22;29.20;69.70
43997;DHT22;34318;45.818;15.964;2022-07-23T13:06:50;29.20;69.70
43997;DHT22;34318;45.818;15.964;2022-07-23T13:09:23;29.20;69.50
43997;DHT22;34318;45.818;15.964;2022-07-23T13:11:52;29.10;69.30
43997;DHT22;34318;45.818;15.964;2022-07-23T13:14:23;29.10;69.30
43997;DHT22;34318;45.818;15.964;2022-07-23T13:16:53;29.10;69.30
43997;DHT22;34318;45.818;15.964;2022-07-23T13:19:40;29.20;69.20
43997;DHT22;34318;45.818;15.964;2022-07-23T13:22:08;29.20;69.20
43997;DHT22;34318;45.818;15.964;2022-07-23T13:24:36;29.10;69.10
43997;DHT22;34318;45.818;15.964;2022-07-23T13:27:05;29.10;69.30
43997;DHT22;34318;45.818;15.964;2022-07-23T13:29:37;29.10;69.00
43997;DHT22;34318;45.818;15.964;2022-07-23T13:32:04;29.20;68.50
43997;DHT22;34318;45.818;15.964;2022-07-23T13:34:39;29.20;68.40
43997;DHT22;34318;45.818;15.964;2022-07-23T13:37:07;29.20;68.20
43997;DHT22;34318;45.818;15.964;2022-07-23T13:39:34;29.20;68.10
43997;DHT22;34318;45.818;15.964;2022-07-23T13:42:04;29.20;68.20
43997;DHT22;34318;45.818;15.964;2022-07-23T13:44:33;29.20;68.10
43997;DHT22;34318;45.818;15.964;2022-07-23T13:47:00;29.10;68.00
43997;DHT22;34318;45.818;15.964;2022-07-23T13:49:27;29.10;68.10
43997;DHT22;34318;45.818;15.964;2022-07-23T13:51:54;29.10;68.20
43997;DHT22;34318;45.818;15.964;2022-07-23T13:54:22;29.10;68.10
43997;DHT22;34318;45.818;15.964;2022-07-23T13:56:49;29.10;68.20
43997;DHT22;34318;45.818;15.964;2022-07-23T13:59:16;29.10;68.40
43997;DHT22;34318;45.818;15.964;2022-07-23T14:01:43;29.10;68.30
43997;DHT22;34318;45.818;15.964;2022-07-23T14:04:31;29.10;68.30
43997;DHT22;34318;45.818;15.964;2022-07-23T14:07:00;29.10;68.00
43997;DHT22;34318;45.818;15.964;2022-07-23T14:09:27;29.20;68.20
43997;DHT22;34318;45.818;15.964;2022-07-23T14:11:54;29.10;68.00
43997;DHT22;34318;45.818;15.964;2022-07-23T14:14:21;29.10;68.20
43997;DHT22;34318;45.818;15.964;2022-07-23T14:16:48;29.20;68.20
43997;DHT22;34318;45.818;15.964;2022-07-23T14:19:15;29.10;67.90
43997;DHT22;34318;45.818;15.964;2022-07-23T14:21:42;29.20;68.10
43997;DHT22;34318;45.818;15.964;2022-07-23T14:24:10;29.20;68.30
43997;DHT22;34318;45.818;15.964;2022-07-23T14:26:37;29.20;68.70
43997;DHT22;34318;45.818;15.964;2022-07-23T14:29:04;29.20;69.00
43997;DHT22;34318;45.818;15.964;2022-07-23T14:31:31;29.20;69.10
43997;DHT22;34318;45.818;15.964;2022-07-23T14:33:58;29.20;69.10
43997;DHT22;34318;45.818;15.964;2022-07-23T14:36:26;29.20;69.00
43997;DHT22;34318;45.818;15.964;2022-07-23T14:38:54;29.20;68.90
43997;DHT22;34318;45.818;15.964;2022-07-23T14:41:22;29.20;69.30
43997;DHT22;34318;45.818;15.964;2022-07-23T14:43:53;29.20;68.50
43997;DHT22;34318;45.818;15.964;2022-07-23T14:46:20;29.20;68.50
43997;DHT22;34318;45.818;15.964;2022-07-23T14:48:47;29.20;68.70
43997;DHT22;34318;45.818;15.964;2022-07-23T14:51:14;29.20;68.70
43997;DHT22;34318;45.818;15.964;2022-07-23T14:53:42;29.20;68.70
43997;DHT22;34318;45.818;15.964;2022-07-23T14:56:09;29.20;68.50
43997;DHT22;34318;45.818;15.964;2022-07-23T14:58:36;29.20;68.70
43997;DHT22;34318;45.818;15.964;2022-07-23T15:01:03;29.20;68.70
43997;DHT22;34318;45.818;15.964;2022-07-23T15:03:30;29.20;68.70
43997;DHT22;34318;45.818;15.964;2022-07-23T15:06:06;29.20;69.60
43997;DHT22;34318;45.818;15.964;2022-07-23T15:08:33;29.20;68.90
43997;DHT22;34318;45.818;15.964;2022-07-23T15:11:00;29.20;68.90
43997;DHT22;34318;45.818;15.964;2022-07-23T15:13:27;29.20;69.00
43997;DHT22;34318;45.818;15.964;2022-07-23T15:15:54;29.20;68.90
43997;DHT22;34318;45.818;15.964;2022-07-23T15:18:22;29.20;69.30
43997;DHT22;34318;45.818;15.964;2022-07-23T15:20:49;29.20;69.30
43997;DHT22;34318;45.818;15.964;2022-07-23T15:23:16;29.20;69.10
43997;DHT22;34318;45.818;15.964;2022-07-23T15:25:43;29.20;69.30
43997;DHT22;34318;45.818;15.964;2022-07-23T15:28:16;29.20;69.70
43997;DHT22;34318;45.818;15.964;2022-07-23T15:30:48;29.20;69.70
43997;DHT22;34318;45.818;15.964;2022-07-23T15:33:16;29.20;69.60
43997;DHT22;34318;45.818;15.964;2022-07-23T15:35:47;29.20;69.70
43997;DHT22;34318;45.818;15.964;2022-07-23T15:38:14;29.20;70.40
43997;DHT22;34318;45.818;15.964;2022-07-23T15:40:51;29.20;69.60
43997;DHT22;34318;45.818;15.964;2022-07-23T15:43:17;29.20;69.60
43997;DHT22;34318;45.818;15.964;2022-07-23T15:45:46;29.30;69.50
43997;DHT22;34318;45.818;15.964;2022-07-23T15:48:13;29.20;69.70
43997;DHT22;34318;45.818;15.964;2022-07-23T15:50:40;29.20;70.00
43997;DHT22;34318;45.818;15.964;2022-07-23T15:53:11;29.20;69.90
43997;DHT22;34318;45.818;15.964;2022-07-23T15:55:42;29.20;70.00
43997;DHT22;34318;45.818;15.964;2022-07-23T15:58:12;29.20;70.00
43997;DHT22;34318;45.818;15.964;2022-07-23T16:00:40;29.20;70.00
43997;DHT22;34318;45.818;15.964;2022-07-23T16:03:11;29.20;70.00
43997;DHT22;34318;45.818;15.964;2022-07-23T16:05:38;29.20;70.00
43997;DHT22;34318;45.818;15.964;2022-07-23T16:08:07;29.20;70.00
43997;DHT22;34318;45.818;15.964;2022-07-23T16:10:34;29.20;70.20
43997;DHT22;34318;45.818;15.964;2022-07-23T16:13:01;29.20;70.40